Central, Idaho
Current Conditions -  °F | °C
As of 3:55 PM on Thursday 27 Nov 2014 (Local Time) from KAFO Reporting Station
Clear Clear  
Wind Chill: 42°   Ceiling: Unl
Heat Index: 45°   Visibility: 10mi
Dew Point: 28°   Wind: 5mph
Humidity: 53%   Direction: 160°SSE
Pressure: 30.22"   Gusts: NA
Location:  42.5232°N, 111.761°W
Report Text: KAFO 272255Z AUTO 16004KT 10SM CLR 07/M02 A3022 RMK AO2
Loading
Personal Weather Stations






























Interactive Weather Map New forecast layout! Learn more

10-Day Weather Forecast

Advertisements
Track Severe Weather on mobile